»·PEaware :: AAL1445 KSAN-KDFW

AAL1445 :: KSAN-KDFW

FLIGHT INFORMATION

Flight Status: Arrived
Operator:
American Airlines
More flights by this operator :: More flights under this callsign
Pilot: Kevin M. (7)
Aircraft: AIRBUS A320
(A320)
More flights by this aircraft type
Origin: KSAN San Diego Intl-Lindbergh
United States
Destination: KDFW Dallas-Ft Worth Intl
United States
More flights between these airports :: More routes between these airports
Route: POGGI5 IPL J18 GBN J50 SSO J4 INK GEEKY SOCKK2
File this flight plan on PilotEdge
Remarks: disclaimer. this may end poorly
Altitude:
(Current/Filed)
35,000ft
Speed:
(Current/Filed)
460kts
Departed: 31-Oct-15 10:15 PM
Arrived: 01-Nov-15 12:54 AM
Distance/Time
Traveled:
1015nm/2:39
Distance/Time
To Go:
Arrived

Flight Plot

Page will automatically refresh every two minutes.


Map Options




Map Legend


Flown Route
Filed Route
Departure Airport
Arrival Airport
Navaid (VOR, NDB)
Fix

Horizontal Profiles

Position Reports

Time Latitude Longitude Heading Altitude Ground
Speed
31-Oct-15 21:51 32.734505 -117.203432 230 25ft 0kts
31-Oct-15 21:52 32.734505 -117.203432 230 25ft 0kts
31-Oct-15 21:53 32.734505 -117.203432 230 25ft 0kts
31-Oct-15 21:54 32.734505 -117.203432 230 25ft 0kts
31-Oct-15 21:55 32.734505 -117.203432 230 25ft 0kts
31-Oct-15 21:56 32.734505 -117.203432 230 25ft 0kts
31-Oct-15 21:57 32.734505 -117.203432 230 25ft 0kts
31-Oct-15 21:58 32.734505 -117.203432 230 25ft 0kts
31-Oct-15 21:59 32.734505 -117.203432 230 25ft 0kts
31-Oct-15 22:00 32.734505 -117.203432 230 25ft 0kts
31-Oct-15 22:01 32.734505 -117.203432 230 25ft 0kts
31-Oct-15 22:02 32.734505 -117.203432 230 25ft 0kts
31-Oct-15 22:03 32.734315 -117.202892 335 25ft 0kts
31-Oct-15 22:04 32.734104 -117.202871 20 25ft 0kts
31-Oct-15 22:05 32.734104 -117.202871 20 25ft 0kts
31-Oct-15 22:06 32.734104 -117.202871 20 25ft 0kts
31-Oct-15 22:07 32.735413 -117.201574 101 25ft 20kts
31-Oct-15 22:08 32.733495 -117.193793 104 25ft 26kts
31-Oct-15 22:09 32.731497 -117.185470 107 25ft 20kts
31-Oct-15 22:10 32.730283 -117.180235 103 25ft 19kts
31-Oct-15 22:11 32.729491 -117.176831 80 25ft 0kts
31-Oct-15 22:12 32.729605 -117.176329 72 25ft 9kts
31-Oct-15 22:13 32.731448 -117.180834 285 25ft 48kts
31-Oct-15 22:14 32.742708 -117.226202 286 1830ft 174kts
31-Oct-15 22:15 32.754605 -117.300406 251 4229ft 266kts
31-Oct-15 22:16 32.692672 -117.306233 134 8019ft 290kts
31-Oct-15 22:17 32.628126 -117.237957 137 10557ft 363kts
31-Oct-15 22:18 32.592831 -117.126958 79 13291ft 397kts
31-Oct-15 22:19 32.608307 -116.993907 83 16637ft 421kts
31-Oct-15 22:20 32.622226 -116.854718 80 19278ft 440kts
31-Oct-15 22:21 32.637381 -116.707981 81 21546ft 455kts
31-Oct-15 22:22 32.652108 -116.556565 80 23344ft 468kts
31-Oct-15 22:23 32.667017 -116.401413 80 24669ft 479kts
31-Oct-15 22:24 32.682028 -116.243101 80 26210ft 483kts
31-Oct-15 22:25 32.696835 -116.084816 80 27692ft 484kts
31-Oct-15 22:26 32.711442 -115.926496 80 29015ft 482kts
31-Oct-15 22:27 32.725902 -115.771166 80 30153ft 480kts
31-Oct-15 22:28 32.739981 -115.614579 80 31127ft 478kts
31-Oct-15 22:29 32.750570 -115.457204 85 31877ft 481kts
31-Oct-15 22:30 32.753958 -115.298851 84 32558ft 481kts
31-Oct-15 22:31 32.757535 -115.140033 84 33157ft 480kts
31-Oct-15 22:32 32.760840 -114.981497 84 33680ft 480kts
31-Oct-15 22:33 32.764186 -114.822902 85 34104ft 480kts
31-Oct-15 22:34 32.767226 -114.664685 85 34500ft 480kts
31-Oct-15 22:35 32.769562 -114.506354 85 34841ft 479kts
31-Oct-15 22:36 32.771616 -114.348386 85 35060ft 475kts
31-Oct-15 22:37 32.773495 -114.190375 85 35065ft 480kts
31-Oct-15 22:38 32.775143 -114.032199 85 35066ft 480kts
31-Oct-15 22:39 32.789400 -113.876630 76 35065ft 475kts
31-Oct-15 22:40 32.811142 -113.727388 76 35060ft 473kts
31-Oct-15 22:41 32.832850 -113.573630 76 35084ft 470kts
31-Oct-15 22:42 32.854273 -113.421045 76 35093ft 466kts
31-Oct-15 22:43 32.871919 -113.294365 75 35093ft 463kts
31-Oct-15 22:44 32.892768 -113.143504 75 35093ft 463kts
31-Oct-15 22:45 32.913483 -112.992161 75 35093ft 463kts
31-Oct-15 22:46 32.933919 -112.843107 76 35092ft 463kts
31-Oct-15 22:47 32.954150 -112.691374 80 35090ft 466kts
31-Oct-15 22:48 32.943912 -112.535796 91 35092ft 474kts
31-Oct-15 22:49 32.929825 -112.379803 91 35096ft 476kts
31-Oct-15 22:50 32.915443 -112.223303 91 35103ft 475kts
31-Oct-15 22:51 32.900944 -112.067653 91 35112ft 472kts
31-Oct-15 22:52 32.886163 -111.912408 94 35111ft 474kts
31-Oct-15 22:53 32.853323 -111.761080 101 35111ft 478kts
31-Oct-15 22:54 32.819147 -111.608168 101 35111ft 478kts
31-Oct-15 22:55 32.784909 -111.455804 100 35138ft 479kts
31-Oct-15 22:56 32.750341 -111.302706 100 35157ft 481kts
31-Oct-15 22:57 32.715447 -111.149101 100 35157ft 482kts
31-Oct-15 22:58 32.680379 -110.995671 100 35158ft 482kts
31-Oct-15 22:59 32.645607 -110.843287 101 35159ft 482kts
31-Oct-15 23:00 32.610194 -110.689613 101 35165ft 482kts
31-Oct-15 23:01 32.574326 -110.536769 101 35166ft 482kts
31-Oct-15 23:02 32.538481 -110.384210 101 35166ft 482kts
31-Oct-15 23:03 32.502357 -110.230899 101 35252ft 483kts
31-Oct-15 23:04 32.466079 -110.077843 101 35590ft 483kts
31-Oct-15 23:05 32.430047 -109.927208 101 35901ft 482kts
31-Oct-15 23:06 32.394228 -109.776333 101 36127ft 482kts
31-Oct-15 23:07 32.357567 -109.624212 101 36348ft 482kts
31-Oct-15 23:08 32.320669 -109.472099 101 36562ft 482kts
31-Oct-15 23:09 32.283597 -109.320156 101 36869ft 480kts
31-Oct-15 23:10 32.260187 -109.166804 91 37100ft 472kts
31-Oct-15 23:11 32.245332 -109.012802 91 37216ft 473kts
31-Oct-15 23:12 32.230728 -108.860082 91 37211ft 473kts
31-Oct-15 23:13 32.215831 -108.705900 91 37211ft 473kts
31-Oct-15 23:14 32.200742 -108.553963 90 37211ft 459kts
31-Oct-15 23:15 32.186017 -108.407041 89 37224ft 449kts
31-Oct-15 23:16 32.171106 -108.260163 89 37252ft 449kts
31-Oct-15 23:17 32.156104 -108.114131 89 37224ft 450kts
31-Oct-15 23:18 32.140856 -107.967409 89 37193ft 450kts
31-Oct-15 23:19 32.125843 -107.821851 90 37193ft 451kts
31-Oct-15 23:20 32.110330 -107.675154 90 37193ft 451kts
31-Oct-15 23:21 32.094556 -107.528369 90 37193ft 451kts
31-Oct-15 23:22 32.078684 -107.382323 90 37203ft 451kts
31-Oct-15 23:23 32.062581 -107.235736 90 37211ft 450kts
31-Oct-15 23:24 32.046356 -107.089622 90 37211ft 450kts
31-Oct-15 23:25 32.029926 -106.943238 90 37211ft 450kts
31-Oct-15 23:26 32.013676 -106.797122 90 37212ft 451kts
31-Oct-15 23:27 31.996932 -106.650606 90 37189ft 453kts
31-Oct-15 23:28 31.979873 -106.503293 90 37174ft 454kts
31-Oct-15 23:29 31.962593 -106.355624 90 37175ft 454kts
31-Oct-15 23:30 31.951075 -106.208854 84 37176ft 448kts
31-Oct-15 23:31 31.948392 -106.062907 84 37175ft 448kts
31-Oct-15 23:32 31.945876 -105.916399 84 37175ft 448kts
31-Oct-15 23:33 31.943558 -105.771168 84 37175ft 448kts
31-Oct-15 23:34 31.940739 -105.624646 84 37175ft 448kts
31-Oct-15 23:35 31.937745 -105.478806 84 37175ft 448kts
31-Oct-15 23:36 31.934586 -105.333199 84 37171ft 448kts
31-Oct-15 23:37 31.931198 -105.187028 84 37143ft 447kts
31-Oct-15 23:38 31.928004 -105.042058 84 37129ft 446kts
31-Oct-15 23:39 31.924627 -104.896066 85 37130ft 447kts
31-Oct-15 23:40 31.921548 -104.755129 85 37148ft 447kts
31-Oct-15 23:41 31.917872 -104.609732 85 37148ft 447kts
31-Oct-15 23:42 31.913995 -104.463641 85 37148ft 447kts
31-Oct-15 23:43 31.909948 -104.317426 85 37148ft 447kts
31-Oct-15 23:44 31.905753 -104.171861 85 37148ft 448kts
31-Oct-15 23:45 31.901378 -104.025847 85 37148ft 448kts
31-Oct-15 23:46 31.896927 -103.881619 86 37145ft 448kts
31-Oct-15 23:47 31.892535 -103.735738 86 37134ft 447kts
31-Oct-15 23:48 31.887701 -103.590585 86 37129ft 446kts
31-Oct-15 23:49 31.882679 -103.445116 86 37129ft 446kts
31-Oct-15 23:50 31.877495 -103.299764 86 37130ft 446kts
31-Oct-15 23:51 31.886533 -103.157460 75 37128ft 438kts
31-Oct-15 23:52 31.905097 -103.015759 75 37129ft 437kts
31-Oct-15 23:53 31.923448 -102.876891 75 37130ft 438kts
31-Oct-15 23:54 31.942191 -102.735494 75 37130ft 439kts
31-Oct-15 23:55 31.957539 -102.617107 75 37129ft 439kts
31-Oct-15 23:56 31.975555 -102.476920 75 37129ft 439kts
31-Oct-15 23:57 31.993629 -102.334990 75 37277ft 438kts
31-Oct-15 23:58 32.011388 -102.194285 75 37588ft 438kts
31-Oct-15 23:59 32.029143 -102.052295 75 37815ft 439kts
01-Nov-15 00:00 32.046742 -101.910203 75 38104ft 438kts
01-Nov-15 00:01 32.064389 -101.768974 76 38411ft 436kts
01-Nov-15 00:02 32.081682 -101.626975 76 38586ft 438kts
01-Nov-15 00:03 32.098580 -101.486561 76 38686ft 441kts
01-Nov-15 00:04 32.115030 -101.349382 82 38674ft 448kts
01-Nov-15 00:05 32.131839 -101.206559 87 39124ft 442kts
01-Nov-15 00:06 32.148731 -101.061807 87 39131ft 448kts
01-Nov-15 00:07 32.165393 -100.917845 87 39117ft 455kts
01-Nov-15 00:08 32.180901 -100.785430 87 39102ft 461kts
01-Nov-15 00:09 32.197743 -100.637336 87 39103ft 467kts
01-Nov-15 00:10 32.214874 -100.484749 87 39103ft 473kts
01-Nov-15 00:11 32.231903 -100.331357 87 39103ft 479kts
01-Nov-15 00:12 32.249179 -100.173948 87 39095ft 486kts
01-Nov-15 00:13 32.266341 -100.015758 87 39076ft 488kts
01-Nov-15 00:14 32.282122 -99.856820 93 39071ft 483kts
01-Nov-15 00:15 32.289592 -99.698235 92 39071ft 484kts
01-Nov-15 00:16 32.297839 -99.539795 92 39072ft 484kts
01-Nov-15 00:17 32.305899 -99.381502 92 38987ft 486kts
01-Nov-15 00:18 32.313710 -99.224489 92 37294ft 483kts
01-Nov-15 00:19 32.321367 -99.066344 92 35694ft 483kts
01-Nov-15 00:20 32.328663 -98.906619 92 33227ft 499kts
01-Nov-15 00:21 32.336083 -98.754702 92 30228ft 471kts
01-Nov-15 00:22 32.342974 -98.602034 92 28106ft 461kts
01-Nov-15 00:23 32.347578 -98.456133 91 24633ft 431kts
01-Nov-15 00:24 32.353592 -98.321188 91 20652ft 397kts
01-Nov-15 00:25 32.359452 -98.189616 92 17552ft 411kts
01-Nov-15 00:26 32.365337 -98.055814 90 14817ft 400kts
01-Nov-15 00:27 32.370718 -97.928558 90 12365ft 377kts
01-Nov-15 00:28 32.359770 -97.810101 87 11575ft 350kts
01-Nov-15 00:29 32.373353 -97.696130 82 11093ft 349kts
01-Nov-15 00:30 32.411686 -97.594732 46 10846ft 350kts
01-Nov-15 00:31 32.473015 -97.507857 75 10787ft 349kts
01-Nov-15 00:32 32.517247 -97.414564 14 10827ft 347kts
01-Nov-15 00:33 32.579792 -97.473365 263 10870ft 328kts
01-Nov-15 00:34 32.534022 -97.564674 234 10835ft 326kts
01-Nov-15 00:35 32.483421 -97.653231 244 10794ft 326kts
01-Nov-15 00:36 32.462957 -97.757888 261 10786ft 328kts
01-Nov-15 00:37 32.453212 -97.863847 263 10781ft 328kts
01-Nov-15 00:38 32.474846 -97.961614 330 10411ft 335kts
01-Nov-15 00:39 32.536568 -97.919070 89 9894ft 283kts
01-Nov-15 00:40 32.554790 -97.840814 72 8917ft 244kts
01-Nov-15 00:41 32.575583 -97.759205 73 8020ft 287kts
01-Nov-15 00:42 32.594508 -97.659176 78 4268ft 362kts
01-Nov-15 00:43 32.612965 -97.549345 78 4006ft 351kts
01-Nov-15 00:44 32.632295 -97.432117 77 3983ft 366kts
01-Nov-15 00:45 32.651806 -97.313232 77 3982ft 367kts
01-Nov-15 00:46 32.671518 -97.195279 77 3979ft 352kts
01-Nov-15 00:47 32.688947 -97.091212 77 3491ft 300kts
01-Nov-15 00:48 32.742081 -97.030695 17 2764ft 246kts
01-Nov-15 00:49 32.802775 -97.030536 359 1535ft 189kts
01-Nov-15 00:50 32.846160 -97.030316 359 715ft 150kts
01-Nov-15 00:51 32.883901 -97.030036 359 34ft 130kts
01-Nov-15 00:52 32.903173 -97.030757 331 8ft 27kts

Navigation Log

Ident Type
1. KSAN Airport
2. JETTI Fix
3. LOWMA Fix
4. PGY Navaid
5. IPL Navaid
6. HEEDS Fix
7. BZA Navaid
8. HOGGZ Fix
9. MOHAK Fix
10. JUDTH Fix
11. GBN Navaid
12. TFD Navaid
13. TOTEC Fix
14. ITEMM Fix
15. SSO Navaid
16. EWM Navaid
17. CONNE Fix
18. INK Navaid
19. KDFW Airport